sensor_id;sensor_type;location;lat;lon;timestamp;P1;durP1;ratioP1;P2;durP2;ratioP2
77350;SDS011;66420;50.246;14.320;2023-05-07T00:01:31;13.88;;;7.95;;
77350;SDS011;66420;50.246;14.320;2023-05-07T00:04:16;17.70;;;9.30;;
77350;SDS011;66420;50.246;14.320;2023-05-07T00:07:01;18.25;;;8.95;;
77350;SDS011;66420;50.246;14.320;2023-05-07T00:09:45;12.48;;;7.10;;
77350;SDS011;66420;50.246;14.320;2023-05-07T00:12:30;17.23;;;9.05;;
77350;SDS011;66420;50.246;14.320;2023-05-07T00:15:17;13.25;;;7.05;;
77350;SDS011;66420;50.246;14.320;2023-05-07T00:18:03;12.30;;;7.50;;
77350;SDS011;66420;50.246;14.320;2023-05-07T00:20:47;12.65;;;7.82;;
77350;SDS011;66420;50.246;14.320;2023-05-07T00:23:32;13.60;;;8.30;;
77350;SDS011;66420;50.246;14.320;2023-05-07T00:26:17;14.25;;;7.30;;
77350;SDS011;66420;50.246;14.320;2023-05-07T00:29:02;16.27;;;8.27;;
77350;SDS011;66420;50.246;14.320;2023-05-07T00:31:46;13.98;;;8.07;;
77350;SDS011;66420;50.246;14.320;2023-05-07T00:34:33;15.25;;;8.45;;
77350;SDS011;66420;50.246;14.320;2023-05-07T00:37:17;14.38;;;7.97;;
77350;SDS011;66420;50.246;14.320;2023-05-07T00:40:02;14.93;;;7.88;;
77350;SDS011;66420;50.246;14.320;2023-05-07T00:42:51;12.45;;;6.80;;
77350;SDS011;66420;50.246;14.320;2023-05-07T00:45:42;12.98;;;7.22;;
77350;SDS011;66420;50.246;14.320;2023-05-07T00:48:27;11.75;;;6.32;;
77350;SDS011;66420;50.246;14.320;2023-05-07T00:51:12;13.38;;;6.25;;
77350;SDS011;66420;50.246;14.320;2023-05-07T00:53:57;11.23;;;6.03;;
77350;SDS011;66420;50.246;14.320;2023-05-07T00:56:42;9.85;;;5.65;;
77350;SDS011;66420;50.246;14.320;2023-05-07T00:59:27;11.77;;;5.75;;
77350;SDS011;66420;50.246;14.320;2023-05-07T01:02:12;11.20;;;6.13;;
77350;SDS011;66420;50.246;14.320;2023-05-07T01:04:57;10.15;;;5.85;;
77350;SDS011;66420;50.246;14.320;2023-05-07T01:07:42;9.75;;;5.57;;
77350;SDS011;66420;50.246;14.320;2023-05-07T01:10:28;10.80;;;5.50;;
77350;SDS011;66420;50.246;14.320;2023-05-07T01:13:14;10.50;;;5.68;;
77350;SDS011;66420;50.246;14.320;2023-05-07T01:15:59;10.00;;;5.45;;
77350;SDS011;66420;50.246;14.320;2023-05-07T01:18:44;10.32;;;6.22;;
77350;SDS011;66420;50.246;14.320;2023-05-07T01:21:32;8.35;;;4.82;;
77350;SDS011;66420;50.246;14.320;2023-05-07T01:24:19;11.98;;;5.80;;
77350;SDS011;66420;50.246;14.320;2023-05-07T01:27:04;10.90;;;5.50;;
77350;SDS011;66420;50.246;14.320;2023-05-07T01:29:49;10.63;;;5.47;;
77350;SDS011;66420;50.246;14.320;2023-05-07T01:32:46;10.63;;;4.88;;
77350;SDS011;66420;50.246;14.320;2023-05-07T01:35:38;9.93;;;5.60;;
77350;SDS011;66420;50.246;14.320;2023-05-07T01:38:27;13.18;;;5.50;;
77350;SDS011;66420;50.246;14.320;2023-05-07T01:41:13;10.45;;;5.60;;
77350;SDS011;66420;50.246;14.320;2023-05-07T01:43:58;10.93;;;5.88;;
77350;SDS011;66420;50.246;14.320;2023-05-07T01:46:43;10.45;;;5.72;;
77350;SDS011;66420;50.246;14.320;2023-05-07T01:49:29;10.10;;;6.13;;
77350;SDS011;66420;50.246;14.320;2023-05-07T01:52:14;11.63;;;6.38;;
77350;SDS011;66420;50.246;14.320;2023-05-07T01:54:59;11.57;;;6.03;;
77350;SDS011;66420;50.246;14.320;2023-05-07T01:57:44;11.38;;;6.60;;
77350;SDS011;66420;50.246;14.320;2023-05-07T02:00:28;11.00;;;5.72;;
77350;SDS011;66420;50.246;14.320;2023-05-07T02:03:13;10.75;;;6.20;;
77350;SDS011;66420;50.246;14.320;2023-05-07T02:05:58;8.98;;;5.00;;
77350;SDS011;66420;50.246;14.320;2023-05-07T02:08:43;10.98;;;5.80;;
77350;SDS011;66420;50.246;14.320;2023-05-07T02:11:27;9.10;;;5.28;;
77350;SDS011;66420;50.246;14.320;2023-05-07T02:14:13;12.32;;;6.55;;
77350;SDS011;66420;50.246;14.320;2023-05-07T02:16:57;10.82;;;6.05;;
77350;SDS011;66420;50.246;14.320;2023-05-07T02:19:42;10.63;;;5.53;;
77350;SDS011;66420;50.246;14.320;2023-05-07T02:22:27;11.98;;;6.35;;
77350;SDS011;66420;50.246;14.320;2023-05-07T02:25:12;10.07;;;5.60;;
77350;SDS011;66420;50.246;14.320;2023-05-07T02:27:57;10.57;;;5.68;;
77350;SDS011;66420;50.246;14.320;2023-05-07T02:30:41;11.52;;;6.07;;
77350;SDS011;66420;50.246;14.320;2023-05-07T02:33:26;10.77;;;5.85;;
77350;SDS011;66420;50.246;14.320;2023-05-07T02:36:11;12.65;;;5.70;;
77350;SDS011;66420;50.246;14.320;2023-05-07T02:38:56;10.75;;;5.50;;
77350;SDS011;66420;50.246;14.320;2023-05-07T02:41:41;11.48;;;6.35;;
77350;SDS011;66420;50.246;14.320;2023-05-07T02:44:26;10.90;;;6.05;;
77350;SDS011;66420;50.246;14.320;2023-05-07T02:47:11;14.00;;;5.63;;
77350;SDS011;66420;50.246;14.320;2023-05-07T02:49:57;12.82;;;6.90;;
77350;SDS011;66420;50.246;14.320;2023-05-07T02:52:42;11.80;;;5.88;;
77350;SDS011;66420;50.246;14.320;2023-05-07T02:55:26;12.00;;;6.43;;
77350;SDS011;66420;50.246;14.320;2023-05-07T02:58:11;11.07;;;5.88;;
77350;SDS011;66420;50.246;14.320;2023-05-07T03:00:55;13.90;;;6.85;;
77350;SDS011;66420;50.246;14.320;2023-05-07T03:03:40;12.50;;;6.43;;
77350;SDS011;66420;50.246;14.320;2023-05-07T03:06:25;12.88;;;6.95;;
77350;SDS011;66420;50.246;14.320;2023-05-07T03:09:10;13.45;;;6.53;;
77350;SDS011;66420;50.246;14.320;2023-05-07T03:11:54;11.65;;;6.10;;
77350;SDS011;66420;50.246;14.320;2023-05-07T03:14:39;15.38;;;6.90;;
77350;SDS011;66420;50.246;14.320;2023-05-07T03:17:24;13.95;;;7.13;;
77350;SDS011;66420;50.246;14.320;2023-05-07T03:20:11;13.85;;;7.05;;
77350;SDS011;66420;50.246;14.320;2023-05-07T03:22:55;14.80;;;7.28;;
77350;SDS011;66420;50.246;14.320;2023-05-07T03:25:40;12.32;;;6.88;;
77350;SDS011;66420;50.246;14.320;2023-05-07T03:28:24;13.48;;;7.30;;
77350;SDS011;66420;50.246;14.320;2023-05-07T03:31:09;14.10;;;7.05;;
77350;SDS011;66420;50.246;14.320;2023-05-07T03:33:54;11.48;;;6.50;;
77350;SDS011;66420;50.246;14.320;2023-05-07T03:36:39;9.32;;;5.60;;
77350;SDS011;66420;50.246;14.320;2023-05-07T03:39:24;11.23;;;5.53;;
77350;SDS011;66420;50.246;14.320;2023-05-07T03:42:09;9.85;;;6.05;;
77350;SDS011;66420;50.246;14.320;2023-05-07T03:44:54;12.27;;;6.50;;
77350;SDS011;66420;50.246;14.320;2023-05-07T03:47:39;9.70;;;5.80;;
77350;SDS011;66420;50.246;14.320;2023-05-07T03:50:24;10.73;;;5.65;;
77350;SDS011;66420;50.246;14.320;2023-05-07T03:53:09;9.75;;;5.55;;
77350;SDS011;66420;50.246;14.320;2023-05-07T03:55:53;10.73;;;6.03;;
77350;SDS011;66420;50.246;14.320;2023-05-07T03:58:38;10.23;;;6.25;;
77350;SDS011;66420;50.246;14.320;2023-05-07T04:01:23;10.65;;;5.90;;
77350;SDS011;66420;50.246;14.320;2023-05-07T04:04:08;9.82;;;5.60;;
77350;SDS011;66420;50.246;14.320;2023-05-07T04:06:52;10.60;;;5.82;;
77350;SDS011;66420;50.246;14.320;2023-05-07T04:09:37;11.35;;;6.43;;
77350;SDS011;66420;50.246;14.320;2023-05-07T04:12:22;9.88;;;5.93;;
77350;SDS011;66420;50.246;14.320;2023-05-07T04:15:07;9.55;;;5.53;;
77350;SDS011;66420;50.246;14.320;2023-05-07T04:17:52;12.80;;;6.07;;
77350;SDS011;66420;50.246;14.320;2023-05-07T04:20:37;10.13;;;6.10;;
77350;SDS011;66420;50.246;14.320;2023-05-07T04:23:22;9.63;;;5.72;;
77350;SDS011;66420;50.246;14.320;2023-05-07T04:26:07;9.07;;;5.22;;
77350;SDS011;66420;50.246;14.320;2023-05-07T04:28:51;11.25;;;5.78;;
77350;SDS011;66420;50.246;14.320;2023-05-07T04:31:35;10.48;;;6.35;;
77350;SDS011;66420;50.246;14.320;2023-05-07T04:34:20;11.55;;;6.55;;
77350;SDS011;66420;50.246;14.320;2023-05-07T04:37:05;11.13;;;6.10;;
77350;SDS011;66420;50.246;14.320;2023-05-07T04:39:49;14.57;;;7.60;;
77350;SDS011;66420;50.246;14.320;2023-05-07T04:42:34;10.10;;;5.70;;
77350;SDS011;66420;50.246;14.320;2023-05-07T04:45:19;10.55;;;5.85;;
77350;SDS011;66420;50.246;14.320;2023-05-07T04:48:04;11.63;;;5.88;;
77350;SDS011;66420;50.246;14.320;2023-05-07T04:50:49;10.63;;;5.95;;
77350;SDS011;66420;50.246;14.320;2023-05-07T04:53:35;12.02;;;6.30;;
77350;SDS011;66420;50.246;14.320;2023-05-07T04:56:19;11.05;;;5.95;;
77350;SDS011;66420;50.246;14.320;2023-05-07T04:59:05;8.93;;;5.30;;
77350;SDS011;66420;50.246;14.320;2023-05-07T05:01:49;10.52;;;5.10;;
77350;SDS011;66420;50.246;14.320;2023-05-07T05:04:34;8.30;;;4.82;;
77350;SDS011;66420;50.246;14.320;2023-05-07T05:07:19;7.00;;;4.20;;
77350;SDS011;66420;50.246;14.320;2023-05-07T05:10:04;7.75;;;4.55;;
77350;SDS011;66420;50.246;14.320;2023-05-07T05:12:49;7.43;;;4.30;;
77350;SDS011;66420;50.246;14.320;2023-05-07T05:15:34;7.82;;;4.32;;
77350;SDS011;66420;50.246;14.320;2023-05-07T05:18:19;9.35;;;4.72;;
77350;SDS011;66420;50.246;14.320;2023-05-07T05:21:04;7.93;;;4.35;;
77350;SDS011;66420;50.246;14.320;2023-05-07T05:23:49;7.85;;;3.80;;
77350;SDS011;66420;50.246;14.320;2023-05-07T05:26:34;8.13;;;3.78;;
77350;SDS011;66420;50.246;14.320;2023-05-07T05:29:19;6.10;;;3.67;;
77350;SDS011;66420;50.246;14.320;2023-05-07T05:32:03;5.93;;;3.50;;
77350;SDS011;66420;50.246;14.320;2023-05-07T05:34:48;6.40;;;3.92;;
77350;SDS011;66420;50.246;14.320;2023-05-07T05:37:33;5.68;;;3.55;;
77350;SDS011;66420;50.246;14.320;2023-05-07T05:40:18;5.97;;;3.80;;
77350;SDS011;66420;50.246;14.320;2023-05-07T05:43:03;6.00;;;3.67;;
77350;SDS011;66420;50.246;14.320;2023-05-07T05:45:47;5.68;;;3.40;;
77350;SDS011;66420;50.246;14.320;2023-05-07T05:48:32;7.90;;;4.25;;
77350;SDS011;66420;50.246;14.320;2023-05-07T05:51:17;5.90;;;3.80;;
77350;SDS011;66420;50.246;14.320;2023-05-07T05:54:02;5.60;;;3.13;;
77350;SDS011;66420;50.246;14.320;2023-05-07T05:56:47;5.50;;;3.42;;
77350;SDS011;66420;50.246;14.320;2023-05-07T05:59:32;6.38;;;3.28;;
77350;SDS011;66420;50.246;14.320;2023-05-07T06:02:16;5.35;;;3.08;;
77350;SDS011;66420;50.246;14.320;2023-05-07T06:05:01;6.03;;;3.40;;
77350;SDS011;66420;50.246;14.320;2023-05-07T06:07:47;5.40;;;3.15;;
77350;SDS011;66420;50.246;14.320;2023-05-07T06:10:32;5.07;;;3.08;;
77350;SDS011;66420;50.246;14.320;2023-05-07T06:13:16;6.80;;;3.83;;
77350;SDS011;66420;50.246;14.320;2023-05-07T06:16:01;6.53;;;3.92;;
77350;SDS011;66420;50.246;14.320;2023-05-07T06:18:45;7.63;;;4.40;;
77350;SDS011;66420;50.246;14.320;2023-05-07T06:21:30;7.35;;;3.80;;
77350;SDS011;66420;50.246;14.320;2023-05-07T06:24:15;6.40;;;3.63;;
77350;SDS011;66420;50.246;14.320;2023-05-07T06:27:00;6.55;;;3.70;;
77350;SDS011;66420;50.246;14.320;2023-05-07T06:29:45;5.35;;;3.47;;
77350;SDS011;66420;50.246;14.320;2023-05-07T06:32:29;5.20;;;3.20;;
77350;SDS011;66420;50.246;14.320;2023-05-07T06:35:14;7.32;;;4.05;;
77350;SDS011;66420;50.246;14.320;2023-05-07T06:37:59;6.28;;;3.63;;
77350;SDS011;66420;50.246;14.320;2023-05-07T06:40:47;6.15;;;3.75;;
77350;SDS011;66420;50.246;14.320;2023-05-07T06:43:33;6.10;;;3.38;;
77350;SDS011;66420;50.246;14.320;2023-05-07T06:46:18;5.22;;;3.25;;
77350;SDS011;66420;50.246;14.320;2023-05-07T06:49:03;13.50;;;5.13;;
77350;SDS011;66420;50.246;14.320;2023-05-07T06:51:47;9.02;;;4.50;;
77350;SDS011;66420;50.246;14.320;2023-05-07T06:54:32;10.48;;;4.38;;
77350;SDS011;66420;50.246;14.320;2023-05-07T06:57:16;6.75;;;3.88;;
77350;SDS011;66420;50.246;14.320;2023-05-07T07:00:01;8.93;;;4.43;;
77350;SDS011;66420;50.246;14.320;2023-05-07T07:02:46;7.78;;;4.07;;
77350;SDS011;66420;50.246;14.320;2023-05-07T07:05:31;11.88;;;4.10;;
77350;SDS011;66420;50.246;14.320;2023-05-07T07:08:16;6.50;;;3.88;;
77350;SDS011;66420;50.246;14.320;2023-05-07T07:11:02;8.63;;;4.50;;
77350;SDS011;66420;50.246;14.320;2023-05-07T07:13:46;7.40;;;4.25;;
77350;SDS011;66420;50.246;14.320;2023-05-07T07:16:31;7.15;;;4.07;;
77350;SDS011;66420;50.246;14.320;2023-05-07T07:19:15;8.85;;;4.25;;
77350;SDS011;66420;50.246;14.320;2023-05-07T07:22:00;7.47;;;4.40;;
77350;SDS011;66420;50.246;14.320;2023-05-07T07:24:44;9.13;;;4.38;;
77350;SDS011;66420;50.246;14.320;2023-05-07T07:27:29;6.72;;;3.60;;
77350;SDS011;66420;50.246;14.320;2023-05-07T07:30:14;7.35;;;4.40;;
77350;SDS011;66420;50.246;14.320;2023-05-07T07:32:58;6.38;;;4.10;;
77350;SDS011;66420;50.246;14.320;2023-05-07T07:35:47;6.22;;;3.92;;
77350;SDS011;66420;50.246;14.320;2023-05-07T07:38:32;7.35;;;3.90;;
77350;SDS011;66420;50.246;14.320;2023-05-07T07:41:17;6.85;;;4.10;;
77350;SDS011;66420;50.246;14.320;2023-05-07T07:44:03;6.60;;;4.18;;
77350;SDS011;66420;50.246;14.320;2023-05-07T07:46:51;5.55;;;3.90;;
77350;SDS011;66420;50.246;14.320;2023-05-07T07:49:35;5.88;;;3.35;;
77350;SDS011;66420;50.246;14.320;2023-05-07T07:52:20;6.85;;;4.07;;
77350;SDS011;66420;50.246;14.320;2023-05-07T07:55:05;6.60;;;4.63;;
77350;SDS011;66420;50.246;14.320;2023-05-07T07:57:50;5.18;;;3.15;;
77350;SDS011;66420;50.246;14.320;2023-05-07T08:00:35;7.03;;;3.53;;
77350;SDS011;66420;50.246;14.320;2023-05-07T08:03:20;5.13;;;3.08;;
77350;SDS011;66420;50.246;14.320;2023-05-07T08:06:06;6.28;;;3.78;;
77350;SDS011;66420;50.246;14.320;2023-05-07T08:08:51;8.65;;;4.00;;
77350;SDS011;66420;50.246;14.320;2023-05-07T08:11:36;6.50;;;4.40;;
77350;SDS011;66420;50.246;14.320;2023-05-07T08:14:21;6.50;;;3.65;;
77350;SDS011;66420;50.246;14.320;2023-05-07T08:17:06;4.35;;;3.30;;
77350;SDS011;66420;50.246;14.320;2023-05-07T08:19:51;5.50;;;3.00;;
77350;SDS011;66420;50.246;14.320;2023-05-07T08:22:35;5.90;;;3.10;;
77350;SDS011;66420;50.246;14.320;2023-05-07T08:25:21;6.85;;;4.07;;
77350;SDS011;66420;50.246;14.320;2023-05-07T08:28:06;7.00;;;3.88;;
77350;SDS011;66420;50.246;14.320;2023-05-07T08:30:50;6.03;;;3.85;;
77350;SDS011;66420;50.246;14.320;2023-05-07T08:33:35;5.13;;;3.50;;
77350;SDS011;66420;50.246;14.320;2023-05-07T08:36:21;5.00;;;3.10;;
77350;SDS011;66420;50.246;14.320;2023-05-07T08:39:05;7.55;;;4.22;;
77350;SDS011;66420;50.246;14.320;2023-05-07T08:41:50;5.85;;;4.00;;
77350;SDS011;66420;50.246;14.320;2023-05-07T08:44:40;5.18;;;3.08;;
77350;SDS011;66420;50.246;14.320;2023-05-07T08:47:29;4.97;;;3.30;;
77350;SDS011;66420;50.246;14.320;2023-05-07T08:50:19;6.10;;;3.50;;
77350;SDS011;66420;50.246;14.320;2023-05-07T08:53:04;5.40;;;3.38;;
77350;SDS011;66420;50.246;14.320;2023-05-07T08:55:50;4.88;;;3.10;;
77350;SDS011;66420;50.246;14.320;2023-05-07T08:58:35;5.65;;;3.53;;
77350;SDS011;66420;50.246;14.320;2023-05-07T09:01:20;7.75;;;4.45;;
77350;SDS011;66420;50.246;14.320;2023-05-07T09:04:05;4.95;;;3.22;;
77350;SDS011;66420;50.246;14.320;2023-05-07T09:06:50;5.47;;;3.25;;
77350;SDS011;66420;50.246;14.320;2023-05-07T09:09:36;6.20;;;3.30;;
77350;SDS011;66420;50.246;14.320;2023-05-07T09:12:21;5.15;;;3.20;;
77350;SDS011;66420;50.246;14.320;2023-05-07T09:15:07;6.63;;;3.90;;
77350;SDS011;66420;50.246;14.320;2023-05-07T09:17:52;5.50;;;3.40;;
77350;SDS011;66420;50.246;14.320;2023-05-07T09:20:37;5.93;;;3.75;;
77350;SDS011;66420;50.246;14.320;2023-05-07T09:23:22;6.50;;;3.80;;
77350;SDS011;66420;50.246;14.320;2023-05-07T09:26:06;6.40;;;4.07;;
77350;SDS011;66420;50.246;14.320;2023-05-07T09:28:55;7.07;;;3.78;;
77350;SDS011;66420;50.246;14.320;2023-05-07T09:31:40;5.43;;;3.47;;
77350;SDS011;66420;50.246;14.320;2023-05-07T09:34:25;6.22;;;3.47;;
77350;SDS011;66420;50.246;14.320;2023-05-07T09:37:10;7.55;;;4.15;;
77350;SDS011;66420;50.246;14.320;2023-05-07T09:39:56;5.90;;;3.80;;
77350;SDS011;66420;50.246;14.320;2023-05-07T09:42:41;6.28;;;3.42;;
77350;SDS011;66420;50.246;14.320;2023-05-07T09:45:26;6.38;;;3.92;;
77350;SDS011;66420;50.246;14.320;2023-05-07T09:48:11;5.25;;;3.67;;
77350;SDS011;66420;50.246;14.320;2023-05-07T09:51:01;7.90;;;4.10;;
77350;SDS011;66420;50.246;14.320;2023-05-07T09:53:47;6.57;;;3.70;;
77350;SDS011;66420;50.246;14.320;2023-05-07T09:56:32;6.82;;;4.10;;
77350;SDS011;66420;50.246;14.320;2023-05-07T09:59:18;7.22;;;3.90;;
77350;SDS011;66420;50.246;14.320;2023-05-07T10:02:04;6.05;;;3.42;;
77350;SDS011;66420;50.246;14.320;2023-05-07T10:04:49;5.55;;;3.50;;
77350;SDS011;66420;50.246;14.320;2023-05-07T10:07:35;6.00;;;3.60;;
77350;SDS011;66420;50.246;14.320;2023-05-07T10:10:20;7.07;;;4.07;;
77350;SDS011;66420;50.246;14.320;2023-05-07T10:13:06;6.45;;;4.13;;
77350;SDS011;66420;50.246;14.320;2023-05-07T10:15:55;6.65;;;4.20;;
77350;SDS011;66420;50.246;14.320;2023-05-07T10:18:40;5.65;;;3.72;;
77350;SDS011;66420;50.246;14.320;2023-05-07T10:21:27;5.90;;;3.55;;
77350;SDS011;66420;50.246;14.320;2023-05-07T10:24:19;6.80;;;3.70;;
77350;SDS011;66420;50.246;14.320;2023-05-07T10:27:09;6.38;;;3.90;;
77350;SDS011;66420;50.246;14.320;2023-05-07T10:32:51;5.45;;;3.53;;
77350;SDS011;66420;50.246;14.320;2023-05-07T10:35:43;5.45;;;3.85;;
77350;SDS011;66420;50.246;14.320;2023-05-07T10:38:29;6.53;;;3.75;;
77350;SDS011;66420;50.246;14.320;2023-05-07T10:41:14;7.13;;;4.18;;
77350;SDS011;66420;50.246;14.320;2023-05-07T10:44:00;6.07;;;3.58;;
77350;SDS011;66420;50.246;14.320;2023-05-07T10:46:57;5.30;;;3.40;;
77350;SDS011;66420;50.246;14.320;2023-05-07T10:53:18;5.40;;;3.40;;
77350;SDS011;66420;50.246;14.320;2023-05-07T10:59:46;5.75;;;3.78;;
77350;SDS011;66420;50.246;14.320;2023-05-07T11:02:15;6.10;;;3.78;;
77350;SDS011;66420;50.246;14.320;2023-05-07T11:05:19;7.60;;;4.28;;
77350;SDS011;66420;50.246;14.320;2023-05-07T11:08:09;6.50;;;4.03;;
77350;SDS011;66420;50.246;14.320;2023-05-07T11:10:54;8.18;;;3.88;;
77350;SDS011;66420;50.246;14.320;2023-05-07T11:13:42;6.47;;;3.70;;
77350;SDS011;66420;50.246;14.320;2023-05-07T11:16:30;5.97;;;3.70;;
77350;SDS011;66420;50.246;14.320;2023-05-07T11:19:17;5.93;;;3.78;;
77350;SDS011;66420;50.246;14.320;2023-05-07T11:25:19;6.90;;;3.92;;
77350;SDS011;66420;50.246;14.320;2023-05-07T11:28:05;6.65;;;3.67;;
77350;SDS011;66420;50.246;14.320;2023-05-07T11:30:51;6.55;;;4.22;;
77350;SDS011;66420;50.246;14.320;2023-05-07T11:33:36;6.57;;;3.97;;
77350;SDS011;66420;50.246;14.320;2023-05-07T11:36:22;7.30;;;3.85;;
77350;SDS011;66420;50.246;14.320;2023-05-07T11:39:22;7.22;;;4.40;;
77350;SDS011;66420;50.246;14.320;2023-05-07T11:42:38;6.15;;;3.60;;
77350;SDS011;66420;50.246;14.320;2023-05-07T11:45:23;9.02;;;4.45;;
77350;SDS011;66420;50.246;14.320;2023-05-07T11:48:15;8.27;;;4.22;;
77350;SDS011;66420;50.246;14.320;2023-05-07T11:51:01;7.28;;;4.13;;
77350;SDS011;66420;50.246;14.320;2023-05-07T11:53:47;6.43;;;3.72;;
77350;SDS011;66420;50.246;14.320;2023-05-07T11:56:57;7.45;;;3.47;;
77350;SDS011;66420;50.246;14.320;2023-05-07T12:00:02;6.85;;;3.90;;
77350;SDS011;66420;50.246;14.320;2023-05-07T12:03:08;8.43;;;4.30;;
77350;SDS011;66420;50.246;14.320;2023-05-07T12:06:22;8.40;;;5.25;;
77350;SDS011;66420;50.246;14.320;2023-05-07T12:09:27;6.63;;;4.32;;
77350;SDS011;66420;50.246;14.320;2023-05-07T12:12:37;7.30;;;4.10;;
77350;SDS011;66420;50.246;14.320;2023-05-07T12:15:26;6.70;;;4.43;;
77350;SDS011;66420;50.246;14.320;2023-05-07T12:18:35;6.28;;;4.20;;
77350;SDS011;66420;50.246;14.320;2023-05-07T12:21:47;7.50;;;4.10;;
77350;SDS011;66420;50.246;14.320;2023-05-07T12:24:49;5.85;;;3.95;;
77350;SDS011;66420;50.246;14.320;2023-05-07T12:28:01;6.63;;;4.35;;
77350;SDS011;66420;50.246;14.320;2023-05-07T12:30:53;7.10;;;4.50;;
77350;SDS011;66420;50.246;14.320;2023-05-07T12:34:02;6.15;;;4.13;;
77350;SDS011;66420;50.246;14.320;2023-05-07T12:37:09;7.07;;;4.70;;
77350;SDS011;66420;50.246;14.320;2023-05-07T12:44:24;7.45;;;4.25;;
77350;SDS011;66420;50.246;14.320;2023-05-07T12:47:33;8.48;;;4.60;;
77350;SDS011;66420;50.246;14.320;2023-05-07T12:50:38;6.88;;;4.32;;
77350;SDS011;66420;50.246;14.320;2023-05-07T12:53:44;7.40;;;4.00;;
77350;SDS011;66420;50.246;14.320;2023-05-07T12:56:52;6.50;;;4.35;;
77350;SDS011;66420;50.246;14.320;2023-05-07T13:00:09;6.38;;;3.95;;
77350;SDS011;66420;50.246;14.320;2023-05-07T13:02:58;5.95;;;3.60;;
77350;SDS011;66420;50.246;14.320;2023-05-07T13:06:09;8.15;;;4.10;;
77350;SDS011;66420;50.246;14.320;2023-05-07T13:09:22;6.63;;;4.00;;
77350;SDS011;66420;50.246;14.320;2023-05-07T13:12:31;6.03;;;3.80;;
77350;SDS011;66420;50.246;14.320;2023-05-07T13:15:38;6.05;;;3.72;;
77350;SDS011;66420;50.246;14.320;2023-05-07T13:18:29;5.22;;;3.58;;
77350;SDS011;66420;50.246;14.320;2023-05-07T13:21:15;5.22;;;3.35;;
77350;SDS011;66420;50.246;14.320;2023-05-07T13:24:20;5.38;;;3.70;;
77350;SDS011;66420;50.246;14.320;2023-05-07T13:27:26;6.47;;;3.40;;
77350;SDS011;66420;50.246;14.320;2023-05-07T13:30:15;4.75;;;3.30;;
77350;SDS011;66420;50.246;14.320;2023-05-07T13:33:00;5.25;;;2.90;;
77350;SDS011;66420;50.246;14.320;2023-05-07T13:35:48;6.00;;;3.50;;
77350;SDS011;66420;50.246;14.320;2023-05-07T13:38:33;5.15;;;3.72;;
77350;SDS011;66420;50.246;14.320;2023-05-07T13:41:41;7.22;;;3.58;;
77350;SDS011;66420;50.246;14.320;2023-05-07T13:44:46;4.70;;;3.20;;
77350;SDS011;66420;50.246;14.320;2023-05-07T13:47:54;4.15;;;3.10;;
77350;SDS011;66420;50.246;14.320;2023-05-07T13:51:02;4.90;;;3.10;;
77350;SDS011;66420;50.246;14.320;2023-05-07T13:54:10;5.13;;;3.22;;
77350;SDS011;66420;50.246;14.320;2023-05-07T13:57:15;4.78;;;3.22;;
77350;SDS011;66420;50.246;14.320;2023-05-07T14:00:23;4.80;;;3.22;;
77350;SDS011;66420;50.246;14.320;2023-05-07T14:03:32;4.65;;;3.13;;
77350;SDS011;66420;50.246;14.320;2023-05-07T14:06:39;4.43;;;3.38;;
77350;SDS011;66420;50.246;14.320;2023-05-07T14:09:44;5.32;;;3.42;;
77350;SDS011;66420;50.246;14.320;2023-05-07T14:12:31;5.82;;;3.80;;
77350;SDS011;66420;50.246;14.320;2023-05-07T14:15:38;4.15;;;2.85;;
77350;SDS011;66420;50.246;14.320;2023-05-07T14:18:44;5.18;;;3.55;;
77350;SDS011;66420;50.246;14.320;2023-05-07T14:21:29;5.18;;;3.17;;
77350;SDS011;66420;50.246;14.320;2023-05-07T14:24:15;6.38;;;3.53;;
77350;SDS011;66420;50.246;14.320;2023-05-07T14:27:02;4.68;;;3.00;;
77350;SDS011;66420;50.246;14.320;2023-05-07T14:30:07;5.07;;;3.20;;
77350;SDS011;66420;50.246;14.320;2023-05-07T14:33:15;5.00;;;3.58;;
77350;SDS011;66420;50.246;14.320;2023-05-07T14:36:21;5.43;;;3.45;;
77350;SDS011;66420;50.246;14.320;2023-05-07T14:39:08;4.85;;;3.20;;
77350;SDS011;66420;50.246;14.320;2023-05-07T14:41:59;4.35;;;3.05;;
77350;SDS011;66420;50.246;14.320;2023-05-07T14:45:04;5.90;;;3.70;;
77350;SDS011;66420;50.246;14.320;2023-05-07T14:48:09;5.05;;;3.40;;
77350;SDS011;66420;50.246;14.320;2023-05-07T14:51:16;6.90;;;3.88;;
77350;SDS011;66420;50.246;14.320;2023-05-07T14:54:21;6.57;;;4.30;;
77350;SDS011;66420;50.246;14.320;2023-05-07T14:57:25;4.85;;;3.70;;
77350;SDS011;66420;50.246;14.320;2023-05-07T15:00:33;6.95;;;4.00;;
77350;SDS011;66420;50.246;14.320;2023-05-07T15:03:43;6.38;;;3.80;;
77350;SDS011;66420;50.246;14.320;2023-05-07T15:06:48;7.03;;;3.85;;
77350;SDS011;66420;50.246;14.320;2023-05-07T15:09:53;7.93;;;4.47;;
77350;SDS011;66420;50.246;14.320;2023-05-07T15:12:58;6.82;;;4.32;;
77350;SDS011;66420;50.246;14.320;2023-05-07T17:05:05;5.30;;;3.22;;
77350;SDS011;66420;50.246;14.320;2023-05-07T17:07:49;6.55;;;2.92;;
77350;SDS011;66420;50.246;14.320;2023-05-07T17:10:34;5.75;;;3.80;;
77350;SDS011;66420;50.246;14.320;2023-05-07T17:13:19;7.15;;;2.53;;
77350;SDS011;66420;50.246;14.320;2023-05-07T17:16:04;6.50;;;3.20;;
77350;SDS011;66420;50.246;14.320;2023-05-07T17:18:49;5.47;;;3.38;;
77350;SDS011;66420;50.246;14.320;2023-05-07T17:21:34;4.70;;;3.22;;
77350;SDS011;66420;50.246;14.320;2023-05-07T17:24:18;3.70;;;2.60;;
77350;SDS011;66420;50.246;14.320;2023-05-07T17:27:03;4.30;;;2.70;;
77350;SDS011;66420;50.246;14.320;2023-05-07T17:29:48;4.00;;;2.92;;
77350;SDS011;66420;50.246;14.320;2023-05-07T17:32:33;4.65;;;2.88;;
77350;SDS011;66420;50.246;14.320;2023-05-07T17:35:18;4.85;;;3.08;;
77350;SDS011;66420;50.246;14.320;2023-05-07T17:38:03;4.75;;;2.80;;
77350;SDS011;66420;50.246;14.320;2023-05-07T17:40:47;4.10;;;3.00;;
77350;SDS011;66420;50.246;14.320;2023-05-07T17:43:32;6.32;;;3.25;;
77350;SDS011;66420;50.246;14.320;2023-05-07T17:46:17;5.50;;;3.60;;
77350;SDS011;66420;50.246;14.320;2023-05-07T17:49:01;4.80;;;2.97;;
77350;SDS011;66420;50.246;14.320;2023-05-07T17:51:46;5.15;;;3.45;;
77350;SDS011;66420;50.246;14.320;2023-05-07T17:54:31;4.93;;;3.20;;
77350;SDS011;66420;50.246;14.320;2023-05-07T17:57:16;5.75;;;3.33;;
77350;SDS011;66420;50.246;14.320;2023-05-07T18:00:01;6.50;;;3.55;;
77350;SDS011;66420;50.246;14.320;2023-05-07T18:02:49;5.90;;;3.60;;
77350;SDS011;66420;50.246;14.320;2023-05-07T18:05:35;5.15;;;3.45;;
77350;SDS011;66420;50.246;14.320;2023-05-07T18:08:20;7.30;;;3.13;;
77350;SDS011;66420;50.246;14.320;2023-05-07T18:11:05;4.32;;;3.20;;
77350;SDS011;66420;50.246;14.320;2023-05-07T18:13:49;4.88;;;3.33;;
77350;SDS011;66420;50.246;14.320;2023-05-07T18:16:35;5.32;;;3.53;;
77350;SDS011;66420;50.246;14.320;2023-05-07T18:19:19;6.93;;;3.70;;
77350;SDS011;66420;50.246;14.320;2023-05-07T18:22:04;5.95;;;3.20;;
77350;SDS011;66420;50.246;14.320;2023-05-07T18:24:50;4.63;;;3.00;;
77350;SDS011;66420;50.246;14.320;2023-05-07T18:27:35;5.45;;;3.10;;
77350;SDS011;66420;50.246;14.320;2023-05-07T18:30:20;4.43;;;2.90;;
77350;SDS011;66420;50.246;14.320;2023-05-07T18:33:05;4.63;;;3.10;;
77350;SDS011;66420;50.246;14.320;2023-05-07T18:35:50;4.55;;;3.22;;
77350;SDS011;66420;50.246;14.320;2023-05-07T18:38:35;5.28;;;3.17;;
77350;SDS011;66420;50.246;14.320;2023-05-07T18:41:20;6.15;;;4.20;;
77350;SDS011;66420;50.246;14.320;2023-05-07T18:44:04;4.55;;;3.20;;